地図

経路データ

SID SEASON NUMBER BASIN SUBBASIN NAME ISO_TIME NATURE LAT LON WMO_WIND WMO_PRES WMO_AGENCY TRACK_TYPE DIST2LAND LANDFALL IFLAG USA_AGENCY USA_ATCF_ID USA_LAT USA_LON USA_RECORD USA_STATUS USA_WIND USA_PRES USA_SSHS USA_R34_NE USA_R34_SE USA_R34_SW USA_R34_NW USA_R50_NE USA_R50_SE USA_R50_SW USA_R50_NW USA_R64_NE USA_R64_SE USA_R64_SW USA_R64_NW USA_POCI USA_ROCI USA_RMW USA_EYE TOKYO_LAT TOKYO_LON TOKYO_GRADE TOKYO_WIND TOKYO_PRES TOKYO_R50_DIR TOKYO_R50_LONG TOKYO_R50_SHORT TOKYO_R30_DIR TOKYO_R30_LONG TOKYO_R30_SHORT TOKYO_LAND CMA_LAT CMA_LON CMA_CAT CMA_WIND CMA_PRES HKO_LAT HKO_LON HKO_CAT HKO_WIND HKO_PRES NEWDELHI_LAT NEWDELHI_LON NEWDELHI_GRADE NEWDELHI_WIND NEWDELHI_PRES NEWDELHI_CI NEWDELHI_DP NEWDELHI_POCI REUNION_LAT REUNION_LON REUNION_TYPE REUNION_WIND REUNION_PRES REUNION_TNUM REUNION_CI REUNION_RMW REUNION_R34_NE REUNION_R34_SE REUNION_R34_SW REUNION_R34_NW REUNION_R50_NE REUNION_R50_SE REUNION_R50_SW REUNION_R50_NW REUNION_R64_NE REUNION_R64_SE REUNION_R64_SW REUNION_R64_NW BOM_LAT BOM_LON BOM_TYPE BOM_WIND BOM_PRES BOM_TNUM BOM_CI BOM_RMW BOM_R34_NE BOM_R34_SE BOM_R34_SW BOM_R34_NW BOM_R50_NE BOM_R50_SE BOM_R50_SW BOM_R50_NW BOM_R64_NE BOM_R64_SE BOM_R64_SW BOM_R64_NW BOM_ROCI BOM_POCI BOM_EYE BOM_POS_METHOD BOM_PRES_METHOD NADI_LAT NADI_LON NADI_CAT NADI_WIND NADI_PRES WELLINGTON_LAT WELLINGTON_LON WELLINGTON_WIND WELLINGTON_PRES DS824_LAT DS824_LON DS824_STAGE DS824_WIND DS824_PRES TD9636_LAT TD9636_LON TD9636_STAGE TD9636_WIND TD9636_PRES TD9635_LAT TD9635_LON TD9635_WIND TD9635_PRES TD9635_ROCI NEUMANN_LAT NEUMANN_LON NEUMANN_CLASS NEUMANN_WIND NEUMANN_PRES MLC_LAT MLC_LON MLC_CLASS MLC_WIND MLC_PRES USA_GUST BOM_GUST BOM_GUST_PER REUNION_GUST REUNION_GUST_PER USA_SEAHGT USA_SEARAD_NE USA_SEARAD_SE USA_SEARAD_SW USA_SEARAD_NW STORM_SPEED STORM_DIR
1983281N12256 1983 69 EP MM RAYMOND 1983-10-08 06:00:00 TS 12.4000 -104.400 30 hurdat_epa main 653 653 O_________O___ hurdat_epa EP171983 12.4000 -104.400 TD 30 -1 12.4000 -104.400 1 30 7 260
1983281N12256 1983 69 EP MM RAYMOND 1983-10-08 09:00:00 TS 12.3409 -104.751 main 680 680 P_________P___ EP171983 12.3401 -104.748 TD 30 -1 12.3434 -104.761 1 30 7 262
1983281N12256 1983 69 EP MM RAYMOND 1983-10-08 12:00:00 TS 12.3000 -105.100 30 hurdat_epa main 690 690 O_________O___ hurdat_epa EP171983 12.3000 -105.100 TD 30 -1 12.3000 -105.100 1 30 7 266
1983281N12256 1983 69 EP MM RAYMOND 1983-10-08 15:00:00 TS 12.2894 -105.444 main 701 701 P_________P___ EP171983 12.2925 -105.457 TD 30 -1 12.2800 -105.404 1 31 7 270
1983281N12256 1983 69 EP MM RAYMOND 1983-10-08 18:00:00 TS 12.2947 -105.775 30 hurdat_epa main 715 715 O_________P___ hurdat_epa EP171983 12.3000 -105.800 TD 30 -1 12.2788 -105.699 1 32 6 271
1983281N12256 1983 69 EP MM RAYMOND 1983-10-08 21:00:00 TS 12.2969 -106.063 main 727 727 P_________P___ EP171983 12.2998 -106.078 TD 32 -1 12.2883 -106.019 1 33 6 270
1983281N12256 1983 69 EP MM RAYMOND 1983-10-09 00:00:00 TS 12.3000 -106.400 35 hurdat_epa main 740 740 O_________O___ hurdat_epa EP171983 12.3000 -106.400 TS 35 0 12.3000 -106.400 2 35 8 270
1983281N12256 1983 69 EP MM RAYMOND 1983-10-09 03:00:00 TS 12.3011 -106.866 main 764 764 P_________P___ EP171983 12.3000 -106.855 TS 35 0 12.3044 -106.897 2 35 10 270
1983281N12256 1983 69 EP MM RAYMOND 1983-10-09 06:00:00 TS 12.3020 -107.414 35 hurdat_epa main 791 791 O_________P___ hurdat_epa EP171983 12.3000 -107.400 TS 35 0 12.3080 -107.455 2 35 11 270
1983281N12256 1983 69 EP MM RAYMOND 1983-10-09 09:00:00 TS 12.3018 -107.998 main 827 827 P_________P___ EP171983 12.3000 -107.985 TS 35 0 12.3075 -108.035 2 35 12 270
1983281N12256 1983 69 EP MM RAYMOND 1983-10-09 12:00:00 TS 12.3000 -108.600 35 hurdat_epa main 866 866 O_________O___ hurdat_epa EP171983 12.3000 -108.600 TS 35 0 12.3000 -108.600 2 35 12 270
1983281N12256 1983 69 EP MM RAYMOND 1983-10-09 15:00:00 TS 12.3018 -109.180 main 904 904 P_________P___ EP171983 12.3076 -109.237 TS 40 0 12.2844 -109.007 2 40 11 269
1983281N12256 1983 69 EP MM RAYMOND 1983-10-09 18:00:00 TS 12.2905 -109.702 45 hurdat_epa main 933 933 O_________P___ hurdat_epa EP171983 12.3000 -109.800 TS 45 0 12.2620 -109.408 2 45 8 266
1983281N12256 1983 69 EP MM RAYMOND 1983-10-09 21:00:00 TS 12.2506 -110.004 main 951 951 P_________P___ EP171983 12.2562 -110.045 TS 50 0 12.2338 -109.879 2 50 8 263
1983281N12256 1983 69 EP MM RAYMOND 1983-10-10 00:00:00 TS 12.2000 -110.500 55 hurdat_epa main 992 992 O_________O___ hurdat_epa EP171983 12.2000 -110.500 TS 55 0 12.2000 -110.500 2 55 16 266
1983281N12256 1983 69 EP MM RAYMOND 1983-10-10 03:00:00 TS 12.1517 -111.655 main 1076 1076 P_________P___ EP171983 12.1519 -111.740 TS 57 0 12.1510 -111.400 2 57 24 268
1983281N12256 1983 69 EP MM RAYMOND 1983-10-10 06:00:00 TS 12.0988 -112.936 60 hurdat_epa main 1175 1175 O_________P___ hurdat_epa EP171983 12.1000 -113.100 TS 60 0 12.0952 -112.446 2 60 21 267
1983281N12256 1983 69 EP MM RAYMOND 1983-10-10 09:00:00 TS 12.0470 -113.824 main 1252 1252 P_________P___ EP171983 12.0488 -113.917 TS 62 0 12.0415 -113.544 2 62 16 267
1983281N12256 1983 69 EP MM RAYMOND 1983-10-10 12:00:00 TS 12.0000 -114.600 65 hurdat_epa main 1313 1313 O_________O___ hurdat_epa EP171983 12.0000 -114.600 HU 65 1 12.0000 -114.600 3 65 16 266
1983281N12256 1983 69 EP MM RAYMOND 1983-10-10 15:00:00 TS 11.9431 -115.453 main 1361 1361 P_________P___ EP171983 11.9349 -115.443 HU 67 1 11.9677 -115.482 3 77 17 267
1983281N12256 1983 69 EP MM RAYMOND 1983-10-10 18:00:00 TS 11.9132 -116.302 70 hurdat_epa main 1400 1400 O_________P___ hurdat_epa EP171983 11.9000 -116.300 HU 70 1 11.9529 -116.310 3 90 16 270
1983281N12256 1983 69 EP MM RAYMOND 1983-10-10 21:00:00 TS 11.9415 -117.107 main 1442 1442 P_________P___ EP171983 11.9347 -117.107 HU 92 2 11.9617 -117.108 3 102 16 273
1983281N12256 1983 69 EP MM RAYMOND 1983-10-11 00:00:00 TS 12.0000 -117.900 115 hurdat_epa main 1478 1478 O_________O___ hurdat_epa EP171983 12.0000 -117.900 HU 115 4 12.0000 -117.900 4 115 16 274
1983281N12256 1983 69 EP MM RAYMOND 1983-10-11 03:00:00 TS 12.0417 -118.703 main 1528 1525 P_________P___ EP171983 12.0347 -118.693 HU 117 4 12.0626 -118.733 4 117 16 274
1983281N12256 1983 69 EP MM RAYMOND 1983-10-11 06:00:00 TS 12.1136 -119.516 120 hurdat_epa main 1572 1572 O_________P___ hurdat_epa EP171983 12.1000 -119.500 HU 120 4 12.1543 -119.565 4 120 16 277
1983281N12256 1983 69 EP MM RAYMOND 1983-10-11 09:00:00 TS 12.2434 -120.360 main 1626 1617 P_________P___ EP171983 12.2349 -120.350 HU 122 4 12.2689 -120.389 4 122 17 280
1983281N12256 1983 69 EP MM RAYMOND 1983-10-11 12:00:00 TS 12.4000 -121.200 125 hurdat_epa main 1668 1668 O_________O___ hurdat_epa EP171983 12.4000 -121.200 HU 125 4 12.4000 -121.200 4 125 16 281
1983281N12256 1983 69 EP MM RAYMOND 1983-10-11 15:00:00 TS 12.5439 -122.006 main 1716 1707 P_________P___ EP171983 12.5498 -122.015 HU 125 4 12.5264 -121.978 4 122 16 281
1983281N12256 1983 69 EP MM RAYMOND 1983-10-11 18:00:00 TS 12.6921 -122.786 125 hurdat_epa main 1750 1750 O_________P___ hurdat_epa EP171983 12.7000 -122.800 HU 125 4 12.6684 -122.743 4 120 15 281
1983281N12256 1983 69 EP MM RAYMOND 1983-10-11 21:00:00 TS 12.8324 -123.524 main 1790 1788 P_________P___ EP171983 12.8344 -123.528 HU 120 4 12.8263 -123.512 4 117 15 282
1983281N12256 1983 69 EP MM RAYMOND 1983-10-12 00:00:00 TS 13.0000 -124.300 115 hurdat_epa main 1831 1831 O_________O___ hurdat_epa EP171983 13.0000 -124.300 HU 115 4 13.0000 -124.300 4 115 17 284
1983281N12256 1983 69 EP MM RAYMOND 1983-10-12 03:00:00 TS 13.2319 -125.216 main 1882 1881 P_________P___ EP171983 13.2503 -125.250 HU 112 3 13.1767 -125.117 4 111 19 285
1983281N12256 1983 69 EP MM RAYMOND 1983-10-12 06:00:00 TS 13.4672 -126.139 110 hurdat_epa main 1928 1928 O_________P___ hurdat_epa EP171983 13.5000 -126.200 HU 110 3 13.3689 -125.956 4 107 17 283
1983281N12256 1983 69 EP MM RAYMOND 1983-10-12 09:00:00 TS 13.6311 -126.928 main 1985 1985 P_________P___ EP171983 13.6493 -126.965 HU 105 3 13.5766 -126.817 4 103 16 282
1983281N12256 1983 69 EP MM RAYMOND 1983-10-12 12:00:00 TS 13.8000 -127.700 100 hurdat_epa main 2036 2036 O_________O___ hurdat_epa EP171983 13.8000 -127.700 HU 100 3 13.8000 -127.700 4 100 16 285
1983281N12256 1983 69 EP MM RAYMOND 1983-10-12 15:00:00 TS 14.0368 -128.537 main 2073 2071 P_________P___ EP171983 14.0346 -128.513 HU 100 3 14.0433 -128.611 4 100 18 287
1983281N12256 1983 69 EP MM RAYMOND 1983-10-12 18:00:00 TS 14.2999 -129.436 100 hurdat_epa main 2112 2112 O_________P___ hurdat_epa EP171983 14.3000 -129.400 HU 100 3 14.2994 -129.542 4 100 19 286
1983281N12256 1983 69 EP MM RAYMOND 1983-10-12 21:00:00 TS 14.5571 -130.414 main 2162 2162 P_________P___ EP171983 14.5575 -130.393 HU 100 3 14.5558 -130.477 4 100 20 285
1983281N12256 1983 69 EP MM RAYMOND 1983-10-13 00:00:00 TS 14.8000 -131.400 100 hurdat_epa main 2224 2224 O_________O___ hurdat_epa EP171983 14.8000 -131.400 HU 100 3 14.8000 -131.400 4 100 19 284
1983281N12256 1983 69 EP MM RAYMOND 1983-10-13 03:00:00 TS 15.0066 -132.319 main 2280 2280 P_________P___ EP171983 15.0070 -132.323 HU 97 3 15.0054 -132.306 4 98 18 283
1983281N12256 1983 69 EP MM RAYMOND 1983-10-13 06:00:00 TS 15.1997 -133.199 95 hurdat_epa main 2339 2252 O_________P___ hurdat_epa EP171983 15.2000 -133.200 HU 95 2 15.1990 -133.196 4 97 17 283
1983281N12256 1983 69 EP MM RAYMOND 1983-10-13 09:00:00 TS 15.3923 -134.059 main 2241 2153 P_________P___ EP171983 15.3921 -134.058 HU 95 2 15.3930 -134.063 4 96 17 284
1983281N12256 1983 69 EP MM RAYMOND 1983-10-13 12:00:00 TS 15.6000 -134.900 95 hurdat_epa main 2153 2064 O_________O___ hurdat_epa EP171983 15.6000 -134.900 HU 95 2 15.6000 -134.900 4 95 17 285
1983281N12256 1983 69 EP MM RAYMOND 1983-10-13 15:00:00 TS 15.8455 -135.756 main 2054 1973 P_________P___ EP171983 15.8424 -135.773 HU 95 2 15.8547 -135.708 4 98 17 287
1983281N12256 1983 69 EP MM RAYMOND 1983-10-13 18:00:00 TS 16.1052 -136.572 95 hurdat_epa main 1963 1882 O_________P___ hurdat_epa EP171983 16.1000 -136.600 HU 95 2 16.1209 -136.487 4 102 16 290
1983281N12256 1983 69 EP MM RAYMOND 1983-10-13 21:00:00 TS 16.3732 -137.304 main 1882 1804 P_________P___ EP171983 16.3720 -137.323 HU 102 3 16.3767 -137.248 4 106 15 290
1983281N12256 1983 69 EP MM RAYMOND 1983-10-14 00:00:00 TS 16.6000 -138.000 110 hurdat_epa main 1804 1729 O_________O___ hurdat_epa EP171983 16.6000 -138.000 HU 110 3 16.6000 -138.000 4 110 14 285
1983281N12256 1983 69 EP MM RAYMOND 1983-10-14 03:00:00 TS 16.7261 -138.709 main 1729 1654 P_________P___ EP171983 16.7146 -138.685 HU 110 3 16.7605 -138.778 4 110 14 279
1983281N12256 1983 69 EP MM RAYMOND 1983-10-14 06:00:00 TS 16.8217 -139.436 110 hurdat_epa main 1654 1569 O_________P___ hurdat_epa EP171983 16.8000 -139.400 HU 110 3 16.8870 -139.546 4 110 15 279
1983281N12256 1983 69 EP CP RAYMOND 1983-10-14 09:00:00 TS 16.9558 -140.234 main 1566 1481 P_________P___ EP171983 16.9427 -140.215 HU 110 3 16.9950 -140.291 4 110 15 281
1983281N12256 1983 69 EP CP RAYMOND 1983-10-14 12:00:00 TS 17.1000 -141.000 110 hurdat_epa main 1481 1416 O_________O___ hurdat_epa EP171983 17.1000 -141.000 HU 110 3 17.1000 -141.000 4 110 14 282
1983281N12256 1983 69 EP CP RAYMOND 1983-10-14 15:00:00 TS 17.2471 -141.636 main 1416 1349 P_________P___ EP171983 17.2570 -141.623 HU 115 4 17.2083 -141.698 4 112 12 284
1983281N12256 1983 69 EP CP RAYMOND 1983-10-14 18:00:00 TS 17.3831 -142.233 120 hurdat_epa main 1349 1274 O_________P___ hurdat_epa EP171983 17.4000 -142.200 HU 120 4 17.3196 -142.355 4 115 12 281
1983281N12256 1983 69 EP CP RAYMOND 1983-10-14 21:00:00 TS 17.4788 -142.886 main 1274 1209 P_________P___ EP171983 17.4852 -142.880 HU 120 4 17.4460 -142.960 4 117 12 280
1983281N12256 1983 69 EP CP RAYMOND 1983-10-15 00:00:00 TS 17.6000 -143.480 120 hurdat_epa main 1209 1163 O_________O___ hurdat_epa EP171983 17.6000 -143.500 HU 120 4 17.6000 -143.500 4 120 10 289
1983281N12256 1983 69 EP CP RAYMOND 1983-10-15 03:00:00 TS 17.8168 -143.925 main 1163 1116 P_________P___ EP171983 17.8346 -143.938 HU 115 4 17.7954 -143.981 4 117 9 301
1983281N12256 1983 69 EP CP RAYMOND 1983-10-15 06:00:00 TS 18.0638 -144.299 110 hurdat_epa main 1116 1070 O_________P___ hurdat_epa EP171983 18.1000 -144.300 HU 110 3 18.0190 -144.398 4 115 9 302
1983281N12256 1983 69 EP CP RAYMOND 1983-10-15 09:00:00 TS 18.2716 -144.698 main 1070 1025 P_________P___ EP171983 18.3000 -144.708 HU 110 3 18.2581 -144.765 4 112 9 299
1983281N12256 1983 69 EP CP RAYMOND 1983-10-15 12:00:00 TS 18.4800 -145.080 110 hurdat_epa main 1025 991 O_________O___ hurdat_epa EP171983 18.5000 -145.100 HU 110 3 18.5000 -145.100 4 110 8 302
1983281N12256 1983 69 EP CP RAYMOND 1983-10-15 15:00:00 TS 18.7166 -145.457 main 981 947 P_________P___ EP171983 18.7500 -145.472 HU 92 2 18.7329 -145.453 4 95 8 305
1983281N12256 1983 69 EP CP RAYMOND 1983-10-15 18:00:00 TS 18.9530 -145.795 75 hurdat_epa main 946 913 O_________P___ hurdat_epa EP171983 19.0000 -145.800 HU 75 1 18.9648 -145.775 4 80 7 307
1983281N12256 1983 69 EP CP RAYMOND 1983-10-15 21:00:00 TS 19.1653 -146.083 main 913 891 P_________P___ EP171983 19.2074 -146.073 HU 62 0 19.1893 -146.059 4 65 6 309
1983281N12256 1983 69 EP CP RAYMOND 1983-10-16 00:00:00 TS 19.3600 -146.320 50 hurdat_epa main 891 869 O_________O___ hurdat_epa EP171983 19.4000 -146.300 TS 50 0 19.4000 -146.300 2 50 6 312
1983281N12256 1983 69 EP CP RAYMOND 1983-10-16 03:00:00 TS 19.5486 -146.530 main 869 848 P_________P___ EP171983 19.6075 -146.523 TS 55 0 19.6054 -146.502 2 52 5 316
1983281N12256 1983 69 EP CP RAYMOND 1983-10-16 06:00:00 TS 19.7189 -146.692 60 hurdat_epa main 848 838 O_________P___ hurdat_epa EP171983 19.8000 -146.700 TS 60 0 19.7947 -146.660 2 55 4 321
1983281N12256 1983 69 EP CP RAYMOND 1983-10-16 09:00:00 TS 19.8713 -146.805 main 838 828 P_________P___ EP171983 19.9650 -146.815 TS 60 0 19.9617 -146.789 2 57 3 326
1983281N12256 1983 69 EP CP RAYMOND 1983-10-16 12:00:00 TS 20.0000 -146.900 60 hurdat_epa main 828 818 O_________O___ hurdat_epa EP171983 20.1000 -146.900 TS 60 0 20.1000 -146.900 2 60 3 318
1983281N12256 1983 69 EP CP RAYMOND 1983-10-16 15:00:00 TS 20.0989 -147.024 main 818 808 P_________P___ EP171983 20.2150 -147.000 TS 55 0 20.1792 -147.003 2 57 3 310
1983281N12256 1983 69 EP CP RAYMOND 1983-10-16 18:00:00 TS 20.1870 -147.139 50 hurdat_epa main 809 798 O_________P___ hurdat_epa EP171983 20.3000 -147.100 TS 50 0 20.2348 -147.093 2 55 3 315
1983281N12256 1983 69 EP CP RAYMOND 1983-10-16 21:00:00 TS 20.2776 -147.215 main 799 789 P_________P___ EP171983 20.3350 -147.193 TS 50 0 20.2980 -147.187 2 52 3 324
1983281N12256 1983 69 EP CP RAYMOND 1983-10-17 00:00:00 TS 20.4000 -147.300 50 hurdat_epa main 790 781 O_________O___ hurdat_epa EP171983 20.4000 -147.300 TS 50 0 20.4000 -147.300 2 50 4 326
1983281N12256 1983 69 EP CP RAYMOND 1983-10-17 03:00:00 TS 20.5813 -147.429 main 782 763 P_________P___ EP171983 20.5700 -147.435 TS 50 0 20.5818 -147.437 2 50 5 325
1983281N12256 1983 69 EP CP RAYMOND 1983-10-17 06:00:00 TS 20.8010 -147.600 50 hurdat_epa main 765 749 O_________P___ hurdat_epa EP171983 20.8000 -147.600 TS 50 0 20.8048 -147.598 2 50 6 322
1983281N12256 1983 69 EP CP RAYMOND 1983-10-17 09:00:00 TS 21.0386 -147.817 main 749 733 P_________P___ EP171983 21.0500 -147.800 TS 50 0 21.0505 -147.784 2 50 6 319
1983281N12256 1983 69 EP CP RAYMOND 1983-10-17 12:00:00 TS 21.2800 -148.040 50 hurdat_epa main 736 719 O_________O___ hurdat_epa EP171983 21.3000 -148.000 TS 50 0 21.3000 -148.000 2 50 6 323
1983281N12256 1983 69 EP CP RAYMOND 1983-10-17 15:00:00 TS 21.4999 -148.193 main 722 709 P_________P___ EP171983 21.4998 -148.120 TS 50 0 21.5576 -148.254 2 48 5 324
1983281N12256 1983 69 EP CP RAYMOND 1983-10-17 18:00:00 TS 21.7220 -148.387 50 hurdat_epa main 709 688 O_________P___ hurdat_epa EP171983 21.7000 -148.300 TS 50 0 21.8102 -148.534 2 47 7 314
1983281N12256 1983 69 EP CP RAYMOND 1983-10-17 21:00:00 TS 21.9862 -148.732 main 692 664 P_________P___ EP171983 21.9728 -148.685 TS 47 0 22.0326 -148.823 2 46 8 306
1983281N12256 1983 69 EP CP RAYMOND 1983-10-18 00:00:00 TS 22.2000 -149.100 45 hurdat_epa main 664 642 O_________O___ hurdat_epa EP171983 22.2000 -149.100 TS 45 0 22.2000 -149.100 2 45 7 297
1983281N12256 1983 69 EP CP RAYMOND 1983-10-18 03:00:00 TS 22.2888 -149.367 main 642 624 P_________P___ EP171983 22.2874 -149.380 TS 45 0 22.2943 -149.328 2 43 5 283
1983281N12256 1983 69 EP CP RAYMOND 1983-10-18 06:00:00 TS 22.3064 -149.589 45 hurdat_epa main 624 606 O_________P___ hurdat_epa EP171983 22.3000 -149.600 TS 45 0 22.3320 -149.543 2 42 4 273
1983281N12256 1983 69 EP CP RAYMOND 1983-10-18 09:00:00 TS 22.3117 -149.792 main 606 588 P_________P___ EP171983 22.3074 -149.800 TS 42 0 22.3287 -149.762 2 41 4 269
1983281N12256 1983 69 EP CP RAYMOND 1983-10-18 12:00:00 TS 22.3000 -150.000 40 hurdat_epa main 588 571 O_________O___ hurdat_epa EP171983 22.3000 -150.000 TS 40 0 22.3000 -150.000 2 40 4 270
1983281N12256 1983 69 EP CP RAYMOND 1983-10-18 15:00:00 TS 22.3093 -150.229 main 571 545 P_________P___ EP171983 22.3149 -150.227 TS 35 0 22.2871 -150.233 2 37 5 269
1983281N12256 1983 69 EP CP RAYMOND 1983-10-18 18:00:00 TS 22.2903 -150.499 30 hurdat_epa main 545 513 O_________P___ hurdat_epa EP171983 22.3000 -150.500 TD 30 -1 22.2513 -150.494 2 35 5 260
1983281N12256 1983 69 EP CP RAYMOND 1983-10-18 21:00:00 TS 22.2157 -150.794 main 513 473 P_________P___ EP171983 22.2220 -150.782 TD 30 -1 22.1899 -150.808 2 32 7 254
1983281N12256 1983 69 EP CP RAYMOND 1983-10-19 00:00:00 TS 22.1000 -151.200 30 hurdat_epa main 473 415 O_________O___ hurdat_epa EP171983 22.1000 -151.200 TD 30 -1 22.1000 -151.200 1 30 10 255
1983281N12256 1983 69 EP CP RAYMOND 1983-10-19 03:00:00 TS 21.9623 -151.805 main 415 351 P_________P___ EP171983 21.9582 -151.885 TD 30 -1 21.9796 -151.713 1 30 12 256
1983281N12256 1983 69 EP CP RAYMOND 1983-10-19 06:00:00 TS 21.8062 -152.460 30 hurdat_epa main 343 296 O_________P___ hurdat_epa EP171983 21.8000 -152.600 TD 30 -1 21.8312 -152.298 1 30 12 254
1983281N12256 1983 69 EP CP RAYMOND 1983-10-19 09:00:00 TS 21.6531 -153.000 main 296 243 P_________P___ EP171983 21.6495 -153.080 TD 30 -1 21.6670 -152.910 1 30 10 252
1983281N12256 1983 69 EP CP RAYMOND 1983-10-19 12:00:00 TS 21.5000 -153.500 30 hurdat_epa main 243 200 O_________O___ hurdat_epa EP171983 21.5000 -153.500 TD 30 -1 21.5000 -153.500 1 30 10 252
1983281N12256 1983 69 EP CP RAYMOND 1983-10-19 15:00:00 TS 21.3416 -154.005 main 191 152 P_________P___ EP171983 21.3500 -154.000 TD 30 -1 21.3084 -153.996 1 28 10 251
1983281N12256 1983 69 EP CP RAYMOND 1983-10-19 18:00:00 TS 21.1847 -154.493 30 hurdat_epa main 152 116 O_________P___ hurdat_epa EP171983 21.2000 -154.500 TD 30 -1 21.1237 -154.466 1 27 9 249
1983281N12256 1983 69 EP CP RAYMOND 1983-10-19 21:00:00 TS 21.0112 -154.946 main 116 63 P_________P___ EP171983 21.0198 -154.950 TD 27 -1 20.9772 -154.928 1 26 9 251
1983281N12256 1983 69 EP CP RAYMOND 1983-10-20 00:00:00 TS 20.9000 -155.400 25 hurdat_epa main 63 23 O_________O___ hurdat_epa EP171983 20.9000 -155.400 TD 25 -1 20.9000 -155.400 1 25 9 263
1983281N12256 1983 69 EP CP RAYMOND 1983-10-20 03:00:00 TS 20.8987 -155.869 main 15 11 P_________P___ EP171983 20.9049 -155.885 TD 25 -1 20.8743 -155.807 1 25 9 275
1983281N12256 1983 69 EP CP RAYMOND 1983-10-20 06:00:00 TS 20.9853 -156.369 25 hurdat_epa main 15 11 O_________P___ hurdat_epa EP171983 21.0000 -156.400 TD 25 -1 20.9263 -156.244 1 25 10 282
1983281N12256 1983 69 EP CP RAYMOND 1983-10-20 09:00:00 TS 21.0964 -156.865 main 38 10 P_________P___ EP171983 21.1041 -156.876 TD 25 -1 21.0654 -156.784 1 25 11 287
1983281N12256 1983 69 EP CP RAYMOND 1983-10-20 12:00:00 TS 21.3000 -157.500 25 hurdat_epa main 10 0 O_________O___ hurdat_epa EP171983 21.3000 -157.500 TD 25 -1 21.3000 -157.500 1 25 15 290
1983281N12256 1983 69 EP CP RAYMOND 1983-10-20 15:00:00 TS 21.6188 -158.376 main 23 0 P_________P___ EP171983 21.6171 -158.411 TD 22 -1 21.6267 -158.435 1 22 19 292
1983281N12256 1983 69 EP CP RAYMOND 1983-10-20 18:00:00 TS 22.0000 -159.400 20 hurdat_epa main 0 O_________O___ hurdat_epa EP171983 22.0000 -159.500 TD 20 -1 22.0000 -159.500 1 20 21 292

IBTrACS Databaseについて

本データベースは、米国NOAAが公開する1842年以降の世界の熱帯低気圧のベストトラックデータアーカイブInternational Best Track Archive for Climate Stewardship (IBTrACS)を、ウェブで閲覧しやすい形式に変換したものです。

最終更新日:2021-10-25